createdAt,value
2017-05-04T00:02:00.305Z,29.64
2017-05-04T00:04:27.698Z,30.98
2017-05-04T00:06:55.125Z,30.83
2017-05-04T00:09:22.719Z,32.60
2017-05-04T00:11:50.342Z,30.42
2017-05-04T00:14:17.916Z,32.26
2017-05-04T00:16:45.447Z,34.44
2017-05-04T00:19:13.011Z,33.74
2017-05-04T00:21:41.221Z,34.00
2017-05-04T00:24:08.856Z,33.37
2017-05-04T00:26:36.320Z,32.32
2017-05-04T00:29:03.950Z,33.06
2017-05-04T00:31:31.633Z,35.96
2017-05-04T00:33:59.190Z,34.86
2017-05-04T00:36:26.626Z,33.34
2017-05-04T00:38:54.080Z,35.12
2017-05-04T00:41:22.369Z,36.04
2017-05-04T00:43:50.634Z,33.96
2017-05-04T00:46:18.940Z,34.60
2017-05-04T00:48:46.545Z,34.15
2017-05-04T00:51:14.047Z,36.10
2017-05-04T00:53:41.506Z,35.34
2017-05-04T00:56:08.937Z,35.42
2017-05-04T00:58:36.309Z,34.64
2017-05-04T01:01:03.957Z,35.38
2017-05-04T01:03:31.547Z,36.94
2017-05-04T01:05:59.098Z,36.54
2017-05-04T01:08:26.777Z,35.36
2017-05-04T01:10:54.385Z,34.38
2017-05-04T01:13:21.895Z,36.43
2017-05-04T01:15:49.307Z,35.24
2017-05-04T01:18:16.893Z,35.04
2017-05-04T01:20:44.339Z,34.94
2017-05-04T01:23:11.937Z,38.34
2017-05-04T01:25:39.359Z,34.24
2017-05-04T01:28:06.912Z,36.98
2017-05-04T01:30:35.028Z,34.70
2017-05-04T01:33:02.550Z,36.46
2017-05-04T01:35:30.097Z,37.03
2017-05-04T01:37:57.646Z,35.16
2017-05-04T01:40:25.217Z,37.30
2017-05-04T01:42:52.763Z,37.00
2017-05-04T01:45:20.227Z,39.40
2017-05-04T01:47:47.516Z,37.82
2017-05-04T01:50:15.073Z,40.40
2017-05-04T01:52:42.679Z,42.84
2017-05-04T01:55:10.178Z,46.92
2017-05-04T01:57:37.599Z,48.80
2017-05-04T02:00:05.247Z,47.65
2017-05-04T02:02:32.850Z,47.20
2017-05-04T02:05:00.482Z,44.08
2017-05-04T02:07:28.096Z,45.06
2017-05-04T02:09:55.702Z,42.56
2017-05-04T02:12:23.384Z,38.28
2017-05-04T02:14:51.014Z,37.40
2017-05-04T02:17:18.623Z,37.30
2017-05-04T02:19:46.217Z,37.22
2017-05-04T02:22:14.225Z,34.76
2017-05-04T02:24:41.749Z,33.88
2017-05-04T02:27:09.283Z,32.58
2017-05-04T02:29:36.774Z,35.60
2017-05-04T02:32:04.377Z,34.82
2017-05-04T02:34:31.879Z,35.80
2017-05-04T02:36:59.583Z,34.16
2017-05-04T02:39:27.588Z,36.10
2017-05-04T02:41:55.793Z,33.42
2017-05-04T02:44:23.359Z,33.84
2017-05-04T02:46:50.909Z,34.20
2017-05-04T02:49:18.537Z,32.04
2017-05-04T02:51:46.168Z,31.72
2017-05-04T02:54:13.709Z,31.82
2017-05-04T02:56:41.150Z,33.50
2017-05-04T02:59:08.761Z,31.44
2017-05-04T03:01:36.279Z,33.37
2017-05-04T03:04:03.869Z,32.47
2017-05-04T03:06:31.219Z,33.26
2017-05-04T03:08:59.481Z,31.62
2017-05-04T03:11:27.125Z,32.58
2017-05-04T03:13:55.302Z,30.92
2017-05-04T03:16:22.773Z,30.70
2017-05-04T03:18:50.989Z,30.38
2017-05-04T03:21:18.613Z,29.45
2017-05-04T03:23:46.631Z,31.32
2017-05-04T03:26:14.857Z,30.34
2017-05-04T03:28:42.364Z,30.42
2017-05-04T03:31:09.845Z,31.96
2017-05-04T03:33:37.388Z,29.64
2017-05-04T03:36:05.089Z,28.82
2017-05-04T03:38:32.503Z,28.90
2017-05-04T03:40:59.884Z,27.54
2017-05-04T03:43:27.393Z,27.58
2017-05-04T03:45:54.954Z,28.30
2017-05-04T03:48:22.307Z,28.02
2017-05-04T03:50:49.827Z,28.06
2017-05-04T03:53:17.281Z,26.20
2017-05-04T03:55:44.805Z,22.54
2017-05-04T03:58:13.003Z,22.04
2017-05-04T04:00:40.398Z,21.58
2017-05-04T04:03:07.773Z,21.44
2017-05-04T04:05:35.262Z,21.90
2017-05-04T04:08:02.844Z,19.38
2017-05-04T04:10:30.829Z,18.88
2017-05-04T04:12:59.034Z,17.90
2017-05-04T04:15:31.746Z,17.20
2017-05-04T04:17:59.371Z,18.43
2017-05-04T04:20:26.921Z,17.53
2017-05-04T04:22:54.394Z,17.02
2017-05-04T04:25:21.869Z,16.85
2017-05-04T04:27:49.321Z,15.78
2017-05-04T04:30:16.963Z,18.00
2017-05-04T04:32:44.681Z,15.58
2017-05-04T04:35:12.299Z,15.05
2017-05-04T04:37:39.924Z,13.70
2017-05-04T04:40:07.438Z,15.30
2017-05-04T04:42:34.962Z,13.52
2017-05-04T04:45:02.429Z,14.93
2017-05-04T04:47:29.975Z,13.17
2017-05-04T04:49:57.662Z,12.98
2017-05-04T04:52:24.995Z,14.02
2017-05-04T04:54:52.440Z,13.13
2017-05-04T04:57:19.925Z,12.50
2017-05-04T04:59:47.427Z,12.00
2017-05-04T05:02:14.889Z,12.22
2017-05-04T05:04:42.668Z,12.37
2017-05-04T05:07:10.165Z,11.90
2017-05-04T05:09:37.591Z,11.12
2017-05-04T05:12:05.142Z,11.55
2017-05-04T05:14:32.790Z,12.53
2017-05-04T05:17:00.401Z,13.05
2017-05-04T05:19:28.003Z,12.27
2017-05-04T05:21:59.933Z,11.70
2017-05-04T05:24:28.339Z,11.63
2017-05-04T05:26:56.397Z,12.13
2017-05-04T05:29:24.593Z,11.40
2017-05-04T05:31:52.150Z,12.82
2017-05-04T05:34:19.738Z,11.77
2017-05-04T05:36:47.193Z,12.32
2017-05-04T05:39:14.674Z,11.48
2017-05-04T05:41:42.090Z,13.17
2017-05-04T05:44:09.530Z,11.05
2017-05-04T05:46:37.117Z,11.27
2017-05-04T05:49:04.679Z,11.15
2017-05-04T05:51:32.207Z,12.50
2017-05-04T05:53:59.826Z,13.55
2017-05-04T05:56:27.319Z,11.75
2017-05-04T05:58:55.015Z,12.57
2017-05-04T06:01:22.641Z,12.60
2017-05-04T06:03:50.194Z,12.57
2017-05-04T06:06:17.484Z,12.35
2017-05-04T06:08:44.975Z,13.67
2017-05-04T06:11:12.501Z,13.28
2017-05-04T06:13:39.954Z,13.63
2017-05-04T06:16:07.501Z,14.37
2017-05-04T06:18:35.051Z,12.22
2017-05-04T06:21:02.508Z,12.87
2017-05-04T06:23:29.877Z,13.08
2017-05-04T06:25:58.134Z,13.40
2017-05-04T06:28:25.714Z,12.90
2017-05-04T06:30:53.209Z,12.43
2017-05-04T06:33:20.590Z,12.02
2017-05-04T06:35:48.765Z,12.06
2017-05-04T06:38:16.352Z,12.35
2017-05-04T06:40:43.826Z,13.08
2017-05-04T06:43:11.265Z,12.86
2017-05-04T06:45:38.681Z,11.62
2017-05-04T06:48:05.910Z,11.07
2017-05-04T06:50:33.209Z,11.06
2017-05-04T06:53:00.791Z,10.78
2017-05-04T06:55:28.331Z,10.60
2017-05-04T06:57:55.595Z,11.13
2017-05-04T07:00:23.029Z,11.13
2017-05-04T07:02:50.753Z,11.80
2017-05-04T07:05:18.391Z,12.93
2017-05-04T07:07:45.993Z,12.72
2017-05-04T07:10:13.376Z,13.75
2017-05-04T07:12:40.826Z,13.68
2017-05-04T07:15:08.492Z,13.87
2017-05-04T07:17:36.070Z,12.35
2017-05-04T07:20:03.582Z,12.92
2017-05-04T07:22:31.328Z,13.70
2017-05-04T07:24:58.809Z,11.77
2017-05-04T07:27:26.461Z,12.15
2017-05-04T07:29:53.905Z,11.57
2017-05-04T07:32:21.858Z,11.56
2017-05-04T07:34:49.475Z,12.02
2017-05-04T07:37:17.026Z,11.42
2017-05-04T07:39:44.516Z,11.70
2017-05-04T07:42:12.006Z,13.28
2017-05-04T07:44:39.579Z,11.92
2017-05-04T07:47:07.150Z,13.42
2017-05-04T07:49:34.644Z,13.92
2017-05-04T07:52:01.989Z,12.68
2017-05-04T07:54:29.565Z,13.27
2017-05-04T07:56:57.097Z,14.06
2017-05-04T07:59:24.513Z,12.92
2017-05-04T08:01:52.052Z,13.18
2017-05-04T08:04:19.743Z,12.80
2017-05-04T08:06:47.325Z,12.68
2017-05-04T08:09:14.983Z,13.47
2017-05-04T08:11:42.543Z,12.62
2017-05-04T08:14:10.165Z,11.57
2017-05-04T08:16:37.759Z,13.15
2017-05-04T08:19:05.193Z,13.32
2017-05-04T08:21:32.645Z,15.12
2017-05-04T08:24:00.221Z,13.73
2017-05-04T08:26:27.776Z,12.92
2017-05-04T08:28:55.501Z,13.82
2017-05-04T08:31:22.930Z,12.58
2017-05-04T08:33:50.441Z,13.62
2017-05-04T08:36:18.093Z,12.65
2017-05-04T08:38:45.555Z,11.47
2017-05-04T08:41:13.266Z,11.27
2017-05-04T08:43:40.922Z,13.02
2017-05-04T08:46:08.431Z,12.48
2017-05-04T08:48:35.886Z,12.68
2017-05-04T08:51:03.582Z,11.88
2017-05-04T08:53:31.184Z,11.38
2017-05-04T08:55:58.903Z,11.58
2017-05-04T08:58:26.423Z,11.73
2017-05-04T09:00:54.018Z,11.67
2017-05-04T09:03:21.410Z,10.72
2017-05-04T09:05:48.899Z,10.52
2017-05-04T09:08:16.574Z,11.18
2017-05-04T09:10:44.030Z,11.48
2017-05-04T09:13:17.461Z,10.85
2017-05-04T09:15:50.892Z,10.86
2017-05-04T09:18:24.944Z,10.64
2017-05-04T09:20:58.300Z,12.38
2017-05-04T09:23:31.591Z,11.23
2017-05-04T09:26:04.894Z,11.10
2017-05-04T09:28:38.307Z,12.34
2017-05-04T09:31:11.465Z,11.38
2017-05-04T09:33:44.678Z,12.48
2017-05-04T09:36:18.013Z,13.52
2017-05-04T09:38:51.397Z,13.00
2017-05-04T09:41:24.533Z,13.10
2017-05-04T09:43:52.037Z,13.15
2017-05-04T09:46:19.577Z,13.06
2017-05-04T09:48:46.967Z,12.80
2017-05-04T09:51:14.407Z,12.70
2017-05-04T09:53:41.814Z,12.66
2017-05-04T09:56:09.263Z,13.04
2017-05-04T09:58:36.794Z,11.60
2017-05-04T10:01:04.181Z,12.24
2017-05-04T10:03:31.750Z,11.92
2017-05-04T10:05:59.407Z,12.16
2017-05-04T10:08:26.862Z,12.78
2017-05-04T10:10:54.405Z,11.56
2017-05-04T10:13:22.022Z,12.60
2017-05-04T10:15:49.667Z,12.94
2017-05-04T10:18:17.004Z,13.10
2017-05-04T10:20:44.643Z,13.72
2017-05-04T10:23:12.318Z,13.56
2017-05-04T10:25:39.757Z,13.64
2017-05-04T10:28:07.147Z,14.82
2017-05-04T10:30:34.711Z,13.20
2017-05-04T10:33:02.230Z,13.80
2017-05-04T10:35:29.794Z,13.56
2017-05-04T10:37:57.341Z,14.86
2017-05-04T10:40:25.021Z,15.10
2017-05-04T10:42:52.501Z,14.40
2017-05-04T10:45:25.741Z,15.58
2017-05-04T10:47:53.502Z,15.62
2017-05-04T10:50:21.216Z,15.16
2017-05-04T10:52:48.642Z,14.68
2017-05-04T10:55:16.224Z,14.76
2017-05-04T10:57:43.650Z,15.36
2017-05-04T11:00:11.136Z,14.26
2017-05-04T11:02:39.289Z,14.98
2017-05-04T11:05:06.945Z,15.40
2017-05-04T11:07:34.493Z,17.02
2017-05-04T11:10:02.980Z,16.30
2017-05-04T11:12:30.445Z,16.72
2017-05-04T11:14:58.037Z,16.08
2017-05-04T11:17:25.576Z,15.78
2017-05-04T11:19:53.155Z,16.78
2017-05-04T11:22:21.223Z,15.98
2017-05-04T11:24:48.670Z,15.52
2017-05-04T11:27:16.221Z,14.62
2017-05-04T11:29:43.744Z,16.46
2017-05-04T11:32:11.230Z,16.62
2017-05-04T11:34:38.657Z,16.62
2017-05-04T11:37:06.223Z,15.32
2017-05-04T11:39:33.781Z,15.80
2017-05-04T11:42:01.261Z,16.34
2017-05-04T11:44:28.872Z,18.34
2017-05-04T11:46:56.449Z,18.44
2017-05-04T11:49:23.937Z,19.38
2017-05-04T11:51:51.476Z,17.44
2017-05-04T11:54:19.678Z,16.82
2017-05-04T11:56:47.189Z,17.70
2017-05-04T11:59:14.455Z,16.94
2017-05-04T12:01:42.623Z,17.10
2017-05-04T12:04:10.340Z,17.28
2017-05-04T12:06:37.643Z,18.22
2017-05-04T12:09:06.047Z,17.62
2017-05-04T12:11:33.461Z,16.94
2017-05-04T12:14:01.155Z,17.20
2017-05-04T12:16:28.715Z,17.06
2017-05-04T12:18:56.381Z,16.46
2017-05-04T12:21:23.907Z,18.96
2017-05-04T12:23:51.369Z,16.72
2017-05-04T12:26:18.681Z,18.42
2017-05-04T12:28:46.070Z,17.12
2017-05-04T12:31:13.783Z,18.42
2017-05-04T12:33:41.219Z,17.48
2017-05-04T12:36:08.750Z,17.18
2017-05-04T12:38:37.011Z,16.84
2017-05-04T12:41:04.598Z,17.34
2017-05-04T12:43:32.781Z,18.38
2017-05-04T12:46:00.606Z,19.28
2017-05-04T12:48:28.781Z,19.22
2017-05-04T12:50:56.609Z,18.22
2017-05-04T12:53:24.203Z,18.38
2017-05-04T12:55:51.750Z,17.98
2017-05-04T12:58:19.370Z,19.66
2017-05-04T13:00:46.765Z,18.74
2017-05-04T13:03:14.474Z,19.16
2017-05-04T13:05:41.893Z,16.64
2017-05-04T13:08:09.527Z,17.14
2017-05-04T13:10:37.037Z,16.06
2017-05-04T13:13:04.723Z,16.34
2017-05-04T13:15:32.159Z,14.72
2017-05-04T13:17:59.595Z,14.70
2017-05-04T13:20:27.145Z,15.60
2017-05-04T13:22:54.429Z,15.06
2017-05-04T13:25:21.863Z,14.70
2017-05-04T13:27:49.567Z,14.78
2017-05-04T13:30:17.169Z,14.82
2017-05-04T13:32:44.596Z,15.04
2017-05-04T13:35:12.303Z,14.80
2017-05-04T13:37:39.838Z,14.12
2017-05-04T13:40:07.796Z,14.14
2017-05-04T13:42:35.523Z,14.56
2017-05-04T13:45:02.989Z,15.18
2017-05-04T13:47:30.586Z,14.12
2017-05-04T13:49:57.991Z,15.52
2017-05-04T13:52:25.509Z,13.40
2017-05-04T13:54:53.301Z,15.12
2017-05-04T13:57:20.842Z,13.66
2017-05-04T13:59:48.287Z,13.44
2017-05-04T14:02:15.841Z,13.40
2017-05-04T14:04:43.293Z,14.76
2017-05-04T14:07:10.967Z,13.48
2017-05-04T14:09:38.465Z,13.76
2017-05-04T14:12:05.972Z,11.14
2017-05-04T14:14:33.668Z,12.56
2017-05-04T14:17:01.142Z,12.50
2017-05-04T14:19:29.239Z,12.38
2017-05-04T14:21:56.845Z,13.10
2017-05-04T14:24:24.439Z,13.30
2017-05-04T14:26:52.089Z,10.84
2017-05-04T14:29:19.574Z,12.60
2017-05-04T14:31:47.158Z,12.34
2017-05-04T14:34:14.837Z,12.32
2017-05-04T14:36:42.321Z,13.24
2017-05-04T14:39:09.745Z,14.50
2017-05-04T14:41:37.200Z,13.18
2017-05-04T14:44:04.688Z,14.32
2017-05-04T14:46:32.113Z,16.00
2017-05-04T14:48:59.418Z,14.64
2017-05-04T14:51:26.949Z,14.66
2017-05-04T14:53:53.615Z,13.55
2017-05-04T14:56:21.020Z,14.80
2017-05-04T14:58:49.183Z,12.58
2017-05-04T15:01:16.633Z,12.14
2017-05-04T15:03:44.233Z,12.52
2017-05-04T15:06:11.842Z,11.54
2017-05-04T15:08:39.445Z,13.64
2017-05-04T15:11:07.004Z,11.73
2017-05-04T15:13:34.433Z,12.78
2017-05-04T15:16:01.898Z,12.92
2017-05-04T15:18:29.499Z,14.93
2017-05-04T15:20:57.063Z,14.55
2017-05-04T15:23:25.229Z,15.02
2017-05-04T15:25:52.844Z,15.53
2017-05-04T15:28:21.233Z,15.53
2017-05-04T15:30:49.390Z,14.52
2017-05-04T15:33:16.882Z,16.10
2017-05-04T15:35:44.438Z,14.33
2017-05-04T15:38:11.998Z,17.45
2017-05-04T15:40:39.655Z,14.88
2017-05-04T15:43:07.023Z,15.72
2017-05-04T15:45:34.643Z,15.88
2017-05-04T15:48:02.148Z,16.37
2017-05-04T15:50:29.683Z,18.08
2017-05-04T15:52:57.310Z,16.70
2017-05-04T15:55:24.967Z,16.72
2017-05-04T15:57:52.505Z,16.27
2017-05-04T16:00:19.861Z,14.42
2017-05-04T16:02:47.461Z,15.42
2017-05-04T16:05:15.044Z,16.50
2017-05-04T16:07:42.740Z,15.00
2017-05-04T16:10:10.307Z,14.60
2017-05-04T16:12:37.857Z,14.15
2017-05-04T16:15:05.162Z,15.97
2017-05-04T16:17:32.532Z,14.62
2017-05-04T16:20:00.052Z,15.60
2017-05-04T16:22:27.581Z,14.60
2017-05-04T16:24:55.087Z,14.30
2017-05-04T16:27:22.672Z,14.05
2017-05-04T16:29:50.165Z,12.95
2017-05-04T16:32:18.577Z,12.37
2017-05-04T16:34:45.982Z,13.42
2017-05-04T16:37:13.687Z,13.10
2017-05-04T16:39:41.367Z,13.62
2017-05-04T16:42:08.913Z,13.45
2017-05-04T16:44:36.545Z,14.27
2017-05-04T16:47:04.106Z,11.67
2017-05-04T16:49:32.546Z,12.55
2017-05-04T16:51:59.943Z,11.57
2017-05-04T16:54:27.257Z,10.77
2017-05-04T16:56:54.723Z,11.13
2017-05-04T16:59:22.381Z,12.23
2017-05-04T17:01:49.971Z,13.23
2017-05-04T17:04:17.671Z,14.08
2017-05-04T17:06:45.457Z,13.32
2017-05-04T17:09:13.140Z,13.23
2017-05-04T17:11:40.597Z,16.05
2017-05-04T17:14:08.290Z,16.17
2017-05-04T17:16:35.751Z,16.83
2017-05-04T17:19:03.299Z,13.83
2017-05-04T17:21:30.933Z,15.27
2017-05-04T17:23:58.570Z,13.07
2017-05-04T17:26:26.149Z,11.92
2017-05-04T17:28:53.681Z,11.58
2017-05-04T17:31:21.092Z,10.43
2017-05-04T17:33:48.659Z,11.97
2017-05-04T17:36:16.135Z,11.08
2017-05-04T17:38:44.080Z,10.58
2017-05-04T17:41:11.501Z,10.32
2017-05-04T17:43:39.479Z,10.90
2017-05-04T17:46:06.895Z,10.75
2017-05-04T17:48:34.333Z,10.53
2017-05-04T17:51:02.038Z,10.27
2017-05-04T17:53:29.611Z,11.33
2017-05-04T17:55:57.143Z,9.63
2017-05-04T17:58:24.409Z,10.33
2017-05-04T18:00:51.934Z,9.27
2017-05-04T18:03:19.431Z,10.50
2017-05-04T18:05:47.073Z,9.17
2017-05-04T18:08:14.538Z,9.38
2017-05-04T18:10:42.085Z,8.80
2017-05-04T18:13:09.521Z,8.35
2017-05-04T18:15:36.939Z,9.32
2017-05-04T18:18:05.063Z,8.27
2017-05-04T18:20:32.668Z,8.88
2017-05-04T18:23:00.233Z,8.95
2017-05-04T18:25:27.800Z,8.22
2017-05-04T18:27:55.282Z,8.15
2017-05-04T18:30:22.763Z,8.22
2017-05-04T18:32:50.218Z,7.87
2017-05-04T18:35:18.373Z,7.03
2017-05-04T18:37:45.838Z,8.82
2017-05-04T18:40:13.197Z,9.23
2017-05-04T18:42:40.729Z,10.28
2017-05-04T18:45:08.289Z,9.75
2017-05-04T18:47:36.059Z,9.78
2017-05-04T18:50:03.672Z,10.17
2017-05-04T18:52:31.810Z,9.40
2017-05-04T18:54:59.290Z,9.40
2017-05-04T18:57:26.791Z,9.42
2017-05-04T18:59:54.327Z,9.20
2017-05-04T19:02:22.505Z,8.82
2017-05-04T19:04:50.017Z,10.05
2017-05-04T19:07:17.627Z,10.32
2017-05-04T19:09:45.168Z,10.35
2017-05-04T19:12:12.733Z,8.97
2017-05-04T19:14:40.357Z,9.70
2017-05-04T19:17:07.926Z,8.05
2017-05-04T19:19:35.490Z,8.02
2017-05-04T19:22:03.167Z,7.77
2017-05-04T19:24:30.764Z,7.12
2017-05-04T19:26:58.339Z,7.18
2017-05-04T19:29:25.898Z,7.03
2017-05-04T19:31:54.057Z,6.90
2017-05-04T19:34:21.487Z,6.73
2017-05-04T19:36:48.759Z,7.12
2017-05-04T19:39:16.191Z,6.78
2017-05-04T19:41:43.645Z,7.50
2017-05-04T19:44:11.216Z,6.45
2017-05-04T19:46:38.667Z,7.37
2017-05-04T19:49:06.246Z,8.05
2017-05-04T19:54:01.551Z,9.48
2017-05-04T19:56:29.265Z,8.97
2017-05-04T19:58:56.810Z,8.43
2017-05-04T20:01:24.361Z,8.58
2017-05-04T20:03:51.917Z,7.78
2017-05-04T20:06:19.467Z,9.13
2017-05-04T20:08:47.031Z,7.88
2017-05-04T20:11:15.309Z,8.55
2017-05-04T20:13:42.882Z,8.62
2017-05-04T20:16:10.423Z,8.30
2017-05-04T20:18:38.653Z,8.72
2017-05-04T20:21:06.199Z,9.32
2017-05-04T20:23:40.662Z,9.68
2017-05-04T20:26:08.334Z,9.85
2017-05-04T20:28:35.749Z,9.93
2017-05-04T20:31:03.290Z,12.98
2017-05-04T20:33:30.687Z,10.73
2017-05-04T20:35:59.015Z,10.13
2017-05-04T20:38:26.597Z,12.28
2017-05-04T20:40:54.188Z,12.28
2017-05-04T20:43:21.668Z,13.47
2017-05-04T20:45:49.132Z,12.87
2017-05-04T20:48:16.601Z,13.85
2017-05-04T20:50:44.097Z,12.48
2017-05-04T20:53:11.568Z,13.85
2017-05-04T20:55:39.220Z,14.65
2017-05-04T20:58:06.828Z,14.62
2017-05-04T21:00:34.230Z,16.12
2017-05-04T21:03:01.761Z,16.28
2017-05-04T21:05:29.733Z,16.90
2017-05-04T21:07:57.485Z,16.48
2017-05-04T21:10:24.969Z,17.73
2017-05-04T21:12:52.629Z,20.37
2017-05-04T21:15:20.251Z,17.90
2017-05-04T21:17:47.866Z,21.35
2017-05-04T21:20:15.323Z,20.52
2017-05-04T21:22:42.860Z,21.77
2017-05-04T21:25:10.555Z,23.20
2017-05-04T21:27:37.977Z,25.35
2017-05-04T21:30:05.597Z,23.35
2017-05-04T21:32:32.992Z,25.25
2017-05-04T21:35:00.508Z,24.72
2017-05-04T21:37:28.018Z,27.02
2017-05-04T21:39:55.605Z,27.52
2017-05-04T21:42:22.981Z,25.77
2017-05-04T21:44:50.486Z,26.63
2017-05-04T21:47:17.976Z,28.17
2017-05-04T21:49:45.398Z,25.10
2017-05-04T21:52:12.974Z,26.20
2017-05-04T21:54:40.406Z,24.25
2017-05-04T21:57:07.841Z,23.68
2017-05-04T21:59:35.360Z,19.70
2017-05-04T22:02:02.758Z,20.23
2017-05-04T22:04:30.249Z,21.65
2017-05-04T22:06:57.700Z,20.23
2017-05-04T22:09:25.867Z,18.97
2017-05-04T22:11:53.301Z,20.42
2017-05-04T22:14:21.628Z,19.07
2017-05-04T22:16:49.255Z,18.27
2017-05-04T22:19:16.644Z,20.30
2017-05-04T22:21:44.160Z,20.83
2017-05-04T22:24:11.873Z,19.75
2017-05-04T22:26:39.505Z,21.78
2017-05-04T22:29:06.933Z,23.48
2017-05-04T22:31:34.395Z,23.22
2017-05-04T22:34:01.953Z,24.18
2017-05-04T22:36:29.516Z,20.48
2017-05-04T22:38:56.962Z,21.15
2017-05-04T22:41:24.418Z,23.37
2017-05-04T22:43:51.970Z,24.05
2017-05-04T22:46:19.709Z,24.90
2017-05-04T22:48:47.199Z,26.72
2017-05-04T22:51:21.624Z,28.27
2017-05-04T22:53:48.962Z,27.43
2017-05-04T22:56:16.413Z,24.93
2017-05-04T22:58:43.988Z,25.83
2017-05-04T23:01:11.411Z,25.78
2017-05-04T23:03:38.906Z,25.33
2017-05-04T23:06:06.467Z,25.60
2017-05-04T23:08:33.914Z,25.77
2017-05-04T23:11:01.358Z,25.75
2017-05-04T23:13:28.972Z,25.50
2017-05-04T23:15:56.484Z,26.22
2017-05-04T23:18:24.041Z,21.98
2017-05-04T23:20:51.553Z,27.35
2017-05-04T23:23:19.087Z,23.82
2017-05-04T23:25:46.608Z,24.05
2017-05-04T23:28:14.270Z,25.33
2017-05-04T23:30:41.988Z,25.57
2017-05-04T23:33:09.485Z,23.62
2017-05-04T23:35:37.046Z,26.48
2017-05-04T23:38:04.593Z,26.33
2017-05-04T23:40:31.989Z,28.08
2017-05-04T23:42:59.615Z,28.73
2017-05-04T23:45:27.152Z,29.37
2017-05-04T23:47:55.316Z,29.23
2017-05-04T23:50:22.911Z,30.62
2017-05-04T23:52:50.472Z,34.43
2017-05-04T23:55:18.138Z,33.23
2017-05-04T23:57:45.591Z,30.27
